createdAt,value
2022-12-06T00:02:49.183Z,3.38
2022-12-06T00:05:52.340Z,2.83
2022-12-06T00:08:58.639Z,2.50
2022-12-06T00:12:01.847Z,2.90
2022-12-06T00:15:05.321Z,2.60
2022-12-06T00:18:08.537Z,2.55
2022-12-06T00:21:11.750Z,2.57
2022-12-06T00:24:18.364Z,2.97
2022-12-06T00:27:21.531Z,2.35
2022-12-06T00:30:24.670Z,2.60
2022-12-06T00:33:32.039Z,2.37
2022-12-06T00:36:37.835Z,2.45
2022-12-06T00:39:41.014Z,2.33
2022-12-06T00:42:44.129Z,2.30
2022-12-06T00:45:47.330Z,2.20
2022-12-06T00:48:52.053Z,2.47
2022-12-06T00:51:55.222Z,2.42
2022-12-06T00:54:58.428Z,2.50
2022-12-06T00:58:01.639Z,2.57
2022-12-06T01:01:08.832Z,2.20
2022-12-06T01:04:12.301Z,2.25
2022-12-06T01:07:15.496Z,2.20
2022-12-06T01:10:18.935Z,2.63
2022-12-06T01:13:22.179Z,2.22
2022-12-06T01:16:28.500Z,2.30
2022-12-06T01:19:31.657Z,2.67
2022-12-06T01:22:35.244Z,2.80
2022-12-06T01:25:38.450Z,2.40
2022-12-06T01:28:42.979Z,2.17
2022-12-06T01:31:46.232Z,2.25
2022-12-06T01:34:52.364Z,1.87
2022-12-06T01:37:55.587Z,2.35
2022-12-06T01:40:58.848Z,2.28
2022-12-06T01:44:02.177Z,1.95
2022-12-06T01:47:06.576Z,2.03
2022-12-06T01:50:18.503Z,2.72
2022-12-06T01:53:25.699Z,2.22
2022-12-06T01:56:29.442Z,1.88
2022-12-06T01:59:32.653Z,2.47
2022-12-06T02:02:35.881Z,2.25
2022-12-06T02:05:41.026Z,2.35
2022-12-06T02:08:45.016Z,2.00
2022-12-06T02:11:48.362Z,2.10
2022-12-06T02:14:54.173Z,2.25
2022-12-06T02:18:10.051Z,2.17
2022-12-06T02:21:42.788Z,2.50
2022-12-06T02:25:07.773Z,2.17
2022-12-06T02:28:29.555Z,1.98
2022-12-06T02:31:50.129Z,2.20
2022-12-06T02:35:09.344Z,1.98
2022-12-06T02:38:43.560Z,2.30
2022-12-06T02:41:54.936Z,2.10
2022-12-06T02:45:08.634Z,2.22
2022-12-06T02:48:14.475Z,2.05
2022-12-06T02:51:19.536Z,2.37
2022-12-06T02:54:24.614Z,2.67
2022-12-06T02:57:49.450Z,2.70
2022-12-06T03:01:01.566Z,2.40
2022-12-06T03:04:46.079Z,2.10
2022-12-06T03:07:50.450Z,2.72
2022-12-06T03:11:00.770Z,2.20
2022-12-06T03:14:19.893Z,2.20
2022-12-06T03:17:53.192Z,2.43
2022-12-06T03:21:07.017Z,2.20
2022-12-06T03:24:14.193Z,2.65
2022-12-06T03:27:20.962Z,2.40
2022-12-06T03:30:24.594Z,2.50
2022-12-06T03:33:29.662Z,2.45
2022-12-06T03:36:34.127Z,2.80
2022-12-06T03:39:48.435Z,2.10
2022-12-06T03:42:52.957Z,2.40
2022-12-06T03:46:22.698Z,2.17
2022-12-06T03:49:45.313Z,2.53
2022-12-06T03:52:50.436Z,2.75
2022-12-06T03:55:53.592Z,2.87
2022-12-06T03:58:56.852Z,2.70
2022-12-06T04:02:00.312Z,2.30
2022-12-06T04:05:03.537Z,2.70
2022-12-06T04:08:07.254Z,2.30
2022-12-06T04:11:10.807Z,2.60
2022-12-06T04:14:14.257Z,2.33
2022-12-06T04:17:36.323Z,2.53
2022-12-06T04:21:06.918Z,2.30
2022-12-06T04:24:10.091Z,3.08
2022-12-06T04:27:31.975Z,2.40
2022-12-06T04:30:54.169Z,2.93
2022-12-06T04:34:16.106Z,2.15
2022-12-06T04:37:38.047Z,2.28
2022-12-06T04:40:41.232Z,2.38
2022-12-06T04:43:44.371Z,2.10
2022-12-06T04:46:47.549Z,2.55
2022-12-06T04:49:51.681Z,2.58
2022-12-06T04:52:54.853Z,2.58
2022-12-06T04:55:58.096Z,2.40
2022-12-06T04:59:01.346Z,2.65
2022-12-06T05:02:05.352Z,2.75
2022-12-06T05:05:08.842Z,2.65
2022-12-06T05:08:12.687Z,2.97
2022-12-06T05:11:15.928Z,2.10
2022-12-06T05:14:18.989Z,2.22
2022-12-06T05:17:22.304Z,2.28
2022-12-06T05:20:26.212Z,2.30
2022-12-06T05:23:30.194Z,2.60
2022-12-06T05:26:33.528Z,2.20
2022-12-06T05:29:36.811Z,2.30
2022-12-06T05:32:40.707Z,2.10
2022-12-06T05:35:43.839Z,2.38
2022-12-06T05:38:51.289Z,2.80
2022-12-06T05:41:55.030Z,2.10
2022-12-06T05:44:58.244Z,2.40
2022-12-06T05:48:01.446Z,2.60
2022-12-06T05:51:05.000Z,2.45
2022-12-06T05:54:08.216Z,2.63
2022-12-06T05:57:11.384Z,2.13
2022-12-06T06:00:15.510Z,1.88
2022-12-06T06:03:19.547Z,2.00
2022-12-06T06:06:23.528Z,1.50
2022-12-06T06:09:27.641Z,2.30
2022-12-06T06:12:30.880Z,2.23
2022-12-06T06:15:34.168Z,2.20
2022-12-06T06:18:37.424Z,2.30
2022-12-06T06:21:40.709Z,2.85
2022-12-06T06:24:43.899Z,2.65
2022-12-06T06:27:47.487Z,2.40
2022-12-06T06:30:51.178Z,2.00
2022-12-06T06:33:55.589Z,2.22
2022-12-06T06:36:58.951Z,2.17
2022-12-06T06:40:02.874Z,2.55
2022-12-06T06:43:18.829Z,2.47
2022-12-06T06:46:22.171Z,2.28
2022-12-06T06:49:25.430Z,2.08
2022-12-06T06:52:29.145Z,2.45
2022-12-06T06:55:32.312Z,2.53
2022-12-06T06:58:35.672Z,2.43
2022-12-06T07:01:39.257Z,3.28
2022-12-06T07:04:46.085Z,3.25
2022-12-06T07:07:52.315Z,2.55
2022-12-06T07:10:56.484Z,2.40
2022-12-06T07:14:02.876Z,3.17
2022-12-06T07:17:06.332Z,3.00
2022-12-06T07:20:10.044Z,2.90
2022-12-06T07:23:14.608Z,2.65
2022-12-06T07:26:20.372Z,3.22
2022-12-06T07:29:23.822Z,3.17
2022-12-06T07:32:27.059Z,3.72
2022-12-06T07:35:55.501Z,3.22
2022-12-06T07:38:56.022Z,2.50
2022-12-06T07:42:18.017Z,2.95
2022-12-06T07:45:28.512Z,2.80
2022-12-06T07:48:31.671Z,2.75
2022-12-06T07:51:35.028Z,2.80
2022-12-06T07:54:38.256Z,3.03
2022-12-06T07:57:43.875Z,2.30
2022-12-06T08:00:47.519Z,2.70
2022-12-06T08:03:50.908Z,2.70
2022-12-06T08:06:54.326Z,2.60
2022-12-06T08:09:58.286Z,2.22
2022-12-06T08:13:03.613Z,2.53
2022-12-06T08:16:08.964Z,2.53
2022-12-06T08:19:12.433Z,3.20
2022-12-06T08:22:15.807Z,3.00
2022-12-06T08:25:20.214Z,2.35
2022-12-06T08:28:23.598Z,3.30
2022-12-06T08:31:29.529Z,3.90
2022-12-06T08:34:34.837Z,3.50
2022-12-06T08:37:37.993Z,4.57
2022-12-06T08:40:41.335Z,3.47
2022-12-06T08:43:46.502Z,3.80
2022-12-06T08:46:49.946Z,3.93
2022-12-06T08:49:53.421Z,4.35
2022-12-06T08:52:56.748Z,4.22
2022-12-06T08:56:02.879Z,4.47
2022-12-06T08:59:07.111Z,4.80
2022-12-06T09:02:13.950Z,3.87
2022-12-06T09:05:17.469Z,4.10
2022-12-06T09:08:21.342Z,4.70
2022-12-06T09:11:26.040Z,3.95
2022-12-06T09:14:29.750Z,4.78
2022-12-06T09:17:33.203Z,14.57
2022-12-06T09:20:40.614Z,5.03
2022-12-06T09:23:44.371Z,4.68
2022-12-06T09:26:48.258Z,3.83
2022-12-06T09:29:51.793Z,3.50
2022-12-06T09:32:55.092Z,4.30
2022-12-06T09:36:05.017Z,4.93
2022-12-06T09:39:21.837Z,4.45
2022-12-06T09:42:34.741Z,6.15
2022-12-06T09:46:06.052Z,7.55
2022-12-06T09:49:30.700Z,7.57
2022-12-06T09:53:13.924Z,5.63
2022-12-06T09:56:35.766Z,4.90
2022-12-06T10:00:22.357Z,5.18
2022-12-06T10:03:26.449Z,5.55
2022-12-06T10:06:42.559Z,9.10
2022-12-06T10:10:16.709Z,7.35
2022-12-06T10:13:49.251Z,5.82
2022-12-06T10:17:19.421Z,7.10
2022-12-06T10:20:38.161Z,6.35
2022-12-06T10:24:03.795Z,6.20
2022-12-06T10:27:20.332Z,5.55
2022-12-06T10:30:25.953Z,6.30
2022-12-06T10:33:55.201Z,6.97
2022-12-06T10:37:47.861Z,7.07
2022-12-06T10:41:06.384Z,7.10
2022-12-06T10:44:24.098Z,7.03
2022-12-06T10:47:43.733Z,5.47
2022-12-06T10:50:55.269Z,7.70
2022-12-06T10:54:04.575Z,8.00
2022-12-06T10:57:25.450Z,8.17
2022-12-06T11:00:34.630Z,7.25
2022-12-06T11:04:20.076Z,7.50
2022-12-06T11:07:40.107Z,8.13
2022-12-06T11:10:46.532Z,9.27
2022-12-06T11:14:16.760Z,8.77
2022-12-06T11:17:27.657Z,9.45
2022-12-06T11:20:39.622Z,10.57
2022-12-06T11:24:03.403Z,11.40
2022-12-06T11:27:16.611Z,10.55
2022-12-06T11:30:21.354Z,10.23
2022-12-06T11:33:34.854Z,10.32
2022-12-06T11:36:38.782Z,10.65
2022-12-06T11:39:42.302Z,11.77
2022-12-06T11:42:45.750Z,11.95
2022-12-06T11:45:50.073Z,10.23
2022-12-06T11:48:54.616Z,11.77
2022-12-06T11:52:03.351Z,11.40
2022-12-06T11:55:48.135Z,12.25
2022-12-06T11:59:28.767Z,11.00
2022-12-06T12:02:32.934Z,12.97
2022-12-06T12:05:38.888Z,12.00
2022-12-06T12:08:50.500Z,11.82
2022-12-06T12:12:14.486Z,9.95
2022-12-06T12:15:21.450Z,11.00
2022-12-06T12:18:36.672Z,11.40
2022-12-06T12:21:42.859Z,11.10
2022-12-06T12:25:18.458Z,11.38
2022-12-06T12:28:28.748Z,10.70
2022-12-06T12:31:32.609Z,10.25
2022-12-06T12:34:41.462Z,7.40
2022-12-06T12:37:47.028Z,8.40
2022-12-06T12:41:16.349Z,8.82
2022-12-06T12:44:38.050Z,8.40
2022-12-06T12:48:00.934Z,8.10
2022-12-06T12:51:19.766Z,7.83
2022-12-06T12:54:32.896Z,7.50
2022-12-06T12:57:36.187Z,7.78
2022-12-06T13:00:45.648Z,7.20
2022-12-06T13:03:51.617Z,7.30
2022-12-06T13:07:10.206Z,7.72
2022-12-06T13:10:19.250Z,7.40
2022-12-06T13:13:36.692Z,7.40
2022-12-06T13:16:40.057Z,7.13
2022-12-06T13:19:53.087Z,7.27
2022-12-06T13:23:05.874Z,7.35
2022-12-06T13:26:17.723Z,8.20
2022-12-06T13:29:27.365Z,8.38
2022-12-06T13:32:38.797Z,8.43
2022-12-06T13:35:57.566Z,8.17
2022-12-06T13:39:33.277Z,9.48
2022-12-06T13:42:39.478Z,7.45
2022-12-06T13:45:48.499Z,7.22
2022-12-06T13:48:53.297Z,7.38
2022-12-06T13:51:56.597Z,7.67
2022-12-06T13:55:19.854Z,6.53
2022-12-06T13:58:25.963Z,6.10
2022-12-06T14:01:40.199Z,6.88
2022-12-06T14:04:44.041Z,6.55
2022-12-06T14:07:47.406Z,6.25
2022-12-06T14:10:50.837Z,7.03
2022-12-06T14:13:58.316Z,6.30
2022-12-06T14:17:11.713Z,6.40
2022-12-06T14:20:35.274Z,5.93
2022-12-06T14:23:48.047Z,6.05
2022-12-06T14:26:56.573Z,6.43
2022-12-06T14:30:09.319Z,5.70
2022-12-06T14:33:24.196Z,6.73
2022-12-06T14:36:31.853Z,6.85
2022-12-06T14:39:35.464Z,6.38
2022-12-06T14:42:57.383Z,6.45
2022-12-06T14:46:04.236Z,6.78
2022-12-06T14:49:31.476Z,5.90
2022-12-06T14:52:34.828Z,6.60
2022-12-06T14:55:54.038Z,7.47
2022-12-06T14:59:00.799Z,6.80
2022-12-06T15:02:04.008Z,7.10
2022-12-06T15:05:31.880Z,7.90
2022-12-06T15:08:37.573Z,7.50
2022-12-06T15:12:08.936Z,8.20
2022-12-06T15:15:33.487Z,8.43
2022-12-06T15:18:39.806Z,11.63
2022-12-06T15:21:43.133Z,9.87
2022-12-06T15:24:47.057Z,9.38
2022-12-06T15:27:50.253Z,9.13
2022-12-06T15:30:54.148Z,9.15
2022-12-06T15:33:57.684Z,9.23
2022-12-06T15:37:36.950Z,8.40
2022-12-06T15:40:24.926Z,9.10
2022-12-06T15:43:34.057Z,9.07
2022-12-06T15:46:37.324Z,8.55
2022-12-06T15:49:41.621Z,8.88
2022-12-06T15:52:44.805Z,9.20
2022-12-06T15:55:48.344Z,9.68
2022-12-06T15:58:52.087Z,10.20
2022-12-06T16:01:55.373Z,10.32
2022-12-06T16:04:58.753Z,10.97
2022-12-06T16:08:02.262Z,12.15
2022-12-06T16:11:13.181Z,13.18
2022-12-06T16:14:16.500Z,14.48
2022-12-06T16:17:19.810Z,15.45
2022-12-06T16:20:32.047Z,15.27
2022-12-06T16:27:16.829Z,15.90
2022-12-06T16:30:32.169Z,11.43
2022-12-06T16:33:35.425Z,11.57
2022-12-06T16:37:01.669Z,12.00
2022-12-06T16:40:05.738Z,11.90
2022-12-06T16:43:09.518Z,11.77
2022-12-06T16:46:26.301Z,10.67
2022-12-06T16:49:48.404Z,11.40
2022-12-06T16:52:52.955Z,10.93
2022-12-06T16:55:56.259Z,11.43
2022-12-06T16:59:00.028Z,11.77
2022-12-06T17:02:06.031Z,11.13
2022-12-06T17:05:24.398Z,11.07
2022-12-06T17:08:28.275Z,12.17
2022-12-06T17:11:56.384Z,12.07
2022-12-06T17:15:00.962Z,12.38
2022-12-06T17:18:04.973Z,14.60
2022-12-06T17:21:10.346Z,15.80
2022-12-06T17:24:17.917Z,15.10
2022-12-06T17:27:21.307Z,13.38
2022-12-06T17:30:25.039Z,14.15
2022-12-06T17:33:28.491Z,12.55
2022-12-06T17:36:32.173Z,12.18
2022-12-06T17:39:35.985Z,13.65
2022-12-06T17:43:06.683Z,15.43
2022-12-06T17:46:10.426Z,15.75
2022-12-06T17:49:17.017Z,15.15
2022-12-06T17:52:20.705Z,14.60
2022-12-06T17:55:23.888Z,13.97
2022-12-06T17:58:27.813Z,14.65
2022-12-06T18:01:58.135Z,13.77
2022-12-06T18:04:56.320Z,12.98
2022-12-06T18:08:00.079Z,14.47
2022-12-06T18:11:03.568Z,15.63
2022-12-06T18:14:07.250Z,14.82
2022-12-06T18:17:11.057Z,14.00
2022-12-06T18:20:15.644Z,14.10
2022-12-06T18:23:19.113Z,13.85
2022-12-06T18:26:23.260Z,14.32
2022-12-06T18:29:26.792Z,13.80
2022-12-06T18:32:30.244Z,14.52
2022-12-06T18:35:36.089Z,13.70
2022-12-06T18:38:39.711Z,13.55
2022-12-06T18:41:44.803Z,14.03
2022-12-06T18:44:50.560Z,14.48
2022-12-06T18:47:57.050Z,13.02
2022-12-06T18:51:04.142Z,12.70
2022-12-06T18:54:08.608Z,11.43
2022-12-06T18:57:12.032Z,11.02
2022-12-06T19:00:16.087Z,11.70
2022-12-06T19:03:20.376Z,11.93
2022-12-06T19:06:26.453Z,12.37
2022-12-06T19:09:30.218Z,11.43
2022-12-06T19:12:33.741Z,12.73
2022-12-06T19:15:39.710Z,13.98
2022-12-06T19:18:44.135Z,14.97
2022-12-06T19:21:48.843Z,14.35
2022-12-06T19:24:52.318Z,13.70
2022-12-06T19:27:55.423Z,12.65
2022-12-06T19:31:07.736Z,13.20
2022-12-06T19:34:16.646Z,13.60
2022-12-06T19:37:20.162Z,13.00
2022-12-06T19:40:23.901Z,13.73
2022-12-06T19:43:46.001Z,20.17
2022-12-06T19:46:50.249Z,21.13
2022-12-06T19:49:54.441Z,20.30
2022-12-06T19:52:57.979Z,18.50
2022-12-06T19:56:02.798Z,18.00
2022-12-06T19:59:12.665Z,17.80
2022-12-06T20:02:16.243Z,18.17
2022-12-06T20:05:19.924Z,18.33
2022-12-06T20:08:23.521Z,18.90
2022-12-06T20:11:46.251Z,19.30
2022-12-06T20:14:50.514Z,18.48
2022-12-06T20:17:54.274Z,18.70
2022-12-06T20:20:58.517Z,17.48
2022-12-06T20:24:02.148Z,16.70
2022-12-06T20:27:05.920Z,17.50
2022-12-06T20:30:10.055Z,16.88
2022-12-06T20:33:13.843Z,17.80
2022-12-06T20:36:20.118Z,14.68
2022-12-06T20:39:25.784Z,15.20
2022-12-06T20:42:29.295Z,15.50
2022-12-06T20:45:32.788Z,18.13
2022-12-06T20:48:37.788Z,16.23
2022-12-06T20:51:41.263Z,15.88
2022-12-06T20:54:44.805Z,16.17
2022-12-06T20:57:48.188Z,14.50
2022-12-06T21:00:51.621Z,16.80
2022-12-06T21:03:55.590Z,19.83
2022-12-06T21:06:59.005Z,18.15
2022-12-06T21:10:02.641Z,18.75
2022-12-06T21:13:06.707Z,18.40
2022-12-06T21:16:17.715Z,19.02
2022-12-06T21:19:21.910Z,19.38
2022-12-06T21:22:25.194Z,22.23
2022-12-06T21:25:28.500Z,22.33
2022-12-06T21:28:32.583Z,21.50
2022-12-06T21:31:38.352Z,22.25
2022-12-06T21:34:46.380Z,20.15
2022-12-06T21:37:49.976Z,20.60
2022-12-06T21:40:57.457Z,20.60
2022-12-06T21:44:03.457Z,21.50
2022-12-06T21:47:06.701Z,20.48
2022-12-06T21:50:10.361Z,20.17
2022-12-06T21:53:13.672Z,20.40
2022-12-06T21:56:19.281Z,20.40
2022-12-06T21:59:24.010Z,19.88
2022-12-06T22:02:27.238Z,19.77
2022-12-06T22:05:30.407Z,20.45
2022-12-06T22:08:33.766Z,19.30
2022-12-06T22:11:37.097Z,17.83
2022-12-06T22:14:40.389Z,18.67
2022-12-06T22:17:43.606Z,17.92
2022-12-06T22:20:57.818Z,18.15
2022-12-06T22:24:01.166Z,17.17
2022-12-06T22:27:04.354Z,18.20
2022-12-06T22:30:08.362Z,19.15
2022-12-06T22:33:11.633Z,19.33
2022-12-06T22:36:15.924Z,22.73
2022-12-06T22:39:19.448Z,23.17
2022-12-06T22:42:22.582Z,22.83
2022-12-06T22:45:25.834Z,22.70
2022-12-06T22:48:29.446Z,21.30
2022-12-06T22:51:36.090Z,20.63
2022-12-06T22:54:39.304Z,19.05
2022-12-06T22:57:43.697Z,19.57
2022-12-06T23:00:46.947Z,20.75
2022-12-06T23:03:51.967Z,20.30
2022-12-06T23:06:55.259Z,20.73
2022-12-06T23:09:59.039Z,21.38
2022-12-06T23:13:02.479Z,21.95
2022-12-06T23:16:09.291Z,20.70
2022-12-06T23:19:12.673Z,19.77
2022-12-06T23:22:15.981Z,20.83
2022-12-06T23:25:19.196Z,19.10
2022-12-06T23:28:24.025Z,18.57
2022-12-06T23:31:33.398Z,18.05
2022-12-06T23:34:36.969Z,17.48
2022-12-06T23:37:41.524Z,17.58
2022-12-06T23:40:44.925Z,16.48
2022-12-06T23:43:48.289Z,17.90
2022-12-06T23:46:52.156Z,17.45
2022-12-06T23:49:55.464Z,17.53
2022-12-06T23:53:00.896Z,16.48
2022-12-06T23:56:08.779Z,19.40
2022-12-06T23:59:16.941Z,19.87
